sensor_id;sensor_type;location;lat;lon;timestamp;pressure;altitude;pressure_sealevel;temperature;humidity
59877;BME280;74472;51.140;17.184;2024-02-26T00:02:16;99047.63;;;4.68;80.88
59877;BME280;74472;51.140;17.184;2024-02-26T00:04:42;99038.22;;;4.65;81.10
59877;BME280;74472;51.140;17.184;2024-02-26T00:07:07;99040.28;;;4.60;80.94
59877;BME280;74472;51.140;17.184;2024-02-26T00:09:33;99044.81;;;4.58;81.10
59877;BME280;74472;51.140;17.184;2024-02-26T00:12:01;99038.97;;;4.55;81.29
59877;BME280;74472;51.140;17.184;2024-02-26T00:14:29;99038.22;;;4.53;81.18
59877;BME280;74472;51.140;17.184;2024-02-26T00:16:54;99036.66;;;4.50;81.42
59877;BME280;74472;51.140;17.184;2024-02-26T00:19:20;99030.72;;;4.48;81.28
59877;BME280;74472;51.140;17.184;2024-02-26T00:21:49;99027.47;;;4.44;81.66
59877;BME280;74472;51.140;17.184;2024-02-26T00:24:14;99022.34;;;4.43;81.29
59877;BME280;74472;51.140;17.184;2024-02-26T00:26:39;99033.94;;;4.52;81.24
59877;BME280;74472;51.140;17.184;2024-02-26T00:29:05;99027.97;;;4.50;81.07
59877;BME280;74472;51.140;17.184;2024-02-26T00:31:30;99021.19;;;4.47;81.41
59877;BME280;74472;51.140;17.184;2024-02-26T00:33:56;99024.22;;;4.41;80.96
59877;BME280;74472;51.140;17.184;2024-02-26T00:36:21;99031.00;;;4.43;80.96
59877;BME280;74472;51.140;17.184;2024-02-26T00:38:46;99035.31;;;4.44;81.19
59877;BME280;74472;51.140;17.184;2024-02-26T00:41:16;99029.22;;;4.44;81.01
59877;BME280;74472;51.140;17.184;2024-02-26T00:43:41;99029.47;;;4.41;81.06
59877;BME280;74472;51.140;17.184;2024-02-26T00:46:07;99036.34;;;4.42;81.06
59877;BME280;74472;51.140;17.184;2024-02-26T00:48:33;99030.38;;;4.40;81.21
59877;BME280;74472;51.140;17.184;2024-02-26T00:50:58;99037.50;;;4.38;81.35
59877;BME280;74472;51.140;17.184;2024-02-26T00:53:23;99027.25;;;4.35;81.59
59877;BME280;74472;51.140;17.184;2024-02-26T00:55:50;99028.91;;;4.36;81.76
59877;BME280;74472;51.140;17.184;2024-02-26T00:58:15;99022.75;;;4.37;81.71
59877;BME280;74472;51.140;17.184;2024-02-26T01:00:40;99022.75;;;4.37;81.90
59877;BME280;74472;51.140;17.184;2024-02-26T01:03:06;99019.41;;;4.35;81.67
59877;BME280;74472;51.140;17.184;2024-02-26T01:05:31;99022.75;;;4.37;81.99
59877;BME280;74472;51.140;17.184;2024-02-26T01:07:56;99020.25;;;4.35;82.07
59877;BME280;74472;51.140;17.184;2024-02-26T01:10:22;99022.75;;;4.37;82.14
59877;BME280;74472;51.140;17.184;2024-02-26T01:12:47;99008.97;;;4.35;82.16
59877;BME280;74472;51.140;17.184;2024-02-26T01:15:13;99012.41;;;4.35;82.06
59877;BME280;74472;51.140;17.184;2024-02-26T01:17:38;99008.97;;;4.35;82.27
59877;BME280;74472;51.140;17.184;2024-02-26T01:20:04;99006.44;;;4.33;82.19
59877;BME280;74472;51.140;17.184;2024-02-26T01:22:30;99003.00;;;4.33;82.22
59877;BME280;74472;51.140;17.184;2024-02-26T01:24:55;99001.34;;;4.32;82.35
59877;BME280;74472;51.140;17.184;2024-02-26T01:27:21;99003.13;;;4.31;82.13
59877;BME280;74472;51.140;17.184;2024-02-26T01:29:51;99009.19;;;4.32;82.12
59877;BME280;74472;51.140;17.184;2024-02-26T01:32:17;99003.13;;;4.31;82.07
59877;BME280;74472;51.140;17.184;2024-02-26T01:34:42;99002.25;;;4.31;82.26
59877;BME280;74472;51.140;17.184;2024-02-26T01:37:07;99005.94;;;4.28;82.37
59877;BME280;74472;51.140;17.184;2024-02-26T01:39:33;99001.75;;;4.26;82.08
59877;BME280;74472;51.140;17.184;2024-02-26T01:41:58;98997.38;;;4.26;82.40
59877;BME280;74472;51.140;17.184;2024-02-26T01:44:26;98996.63;;;4.24;82.32
59877;BME280;74472;51.140;17.184;2024-02-26T01:46:51;98999.22;;;4.24;82.43
59877;BME280;74472;51.140;17.184;2024-02-26T01:49:18;98996.53;;;4.26;82.57
59877;BME280;74472;51.140;17.184;2024-02-26T01:51:44;98993.28;;;4.22;82.38
59877;BME280;74472;51.140;17.184;2024-02-26T01:54:09;98997.69;;;4.21;82.55
59877;BME280;74472;51.140;17.184;2024-02-26T01:56:37;98995.38;;;4.17;82.34
59877;BME280;74472;51.140;17.184;2024-02-26T01:59:05;98996.19;;;4.17;82.48
59877;BME280;74472;51.140;17.184;2024-02-26T02:01:32;98989.31;;;4.16;82.57
59877;BME280;74472;51.140;17.184;2024-02-26T02:03:59;98991.94;;;4.16;82.66
59877;BME280;74472;51.140;17.184;2024-02-26T02:06:25;98985.97;;;4.14;82.64
59877;BME280;74472;51.140;17.184;2024-02-26T02:08:52;98997.97;;;4.17;82.51
59877;BME280;74472;51.140;17.184;2024-02-26T02:11:17;98990.25;;;4.15;82.61
59877;BME280;74472;51.140;17.184;2024-02-26T02:13:43;98995.47;;;4.15;82.83
59877;BME280;74472;51.140;17.184;2024-02-26T02:16:08;98990.25;;;4.15;82.89
59877;BME280;74472;51.140;17.184;2024-02-26T02:18:34;98981.69;;;4.13;82.74
59877;BME280;74472;51.140;17.184;2024-02-26T02:21:02;98984.28;;;4.13;82.92
59877;BME280;74472;51.140;17.184;2024-02-26T02:23:28;98987.84;;;4.12;82.71
59877;BME280;74472;51.140;17.184;2024-02-26T02:25:53;98984.50;;;4.10;82.85
59877;BME280;74472;51.140;17.184;2024-02-26T02:28:20;98991.63;;;4.08;82.95
59877;BME280;74472;51.140;17.184;2024-02-26T02:30:46;98985.53;;;4.08;82.78
59877;BME280;74472;51.140;17.184;2024-02-26T02:33:12;98982.09;;;4.07;82.93
59877;BME280;74472;51.140;17.184;2024-02-26T02:35:37;98984.72;;;4.07;82.98
59877;BME280;74472;51.140;17.184;2024-02-26T02:38:03;98982.28;;;4.04;82.84
59877;BME280;74472;51.140;17.184;2024-02-26T02:40:28;98980.31;;;4.08;83.15
59877;BME280;74472;51.140;17.184;2024-02-26T02:42:54;98976.88;;;4.07;82.99
59877;BME280;74472;51.140;17.184;2024-02-26T02:45:19;98978.66;;;4.07;83.13
59877;BME280;74472;51.140;17.184;2024-02-26T02:47:44;98979.59;;;4.06;82.94
59877;BME280;74472;51.140;17.184;2024-02-26T02:50:10;98984.00;;;4.05;83.09
59877;BME280;74472;51.140;17.184;2024-02-26T02:52:35;98980.63;;;4.03;83.09
59877;BME280;74472;51.140;17.184;2024-02-26T02:55:01;98981.59;;;4.02;83.33
59877;BME280;74472;51.140;17.184;2024-02-26T02:57:26;98981.88;;;3.97;83.22
59877;BME280;74472;51.140;17.184;2024-02-26T02:59:51;98983.66;;;3.97;83.34
59877;BME280;74472;51.140;17.184;2024-02-26T03:02:17;98982.00;;;3.96;83.39
59877;BME280;74472;51.140;17.184;2024-02-26T03:04:42;98981.25;;;3.94;83.43
59877;BME280;74472;51.140;17.184;2024-02-26T03:07:07;98978.75;;;3.92;83.55
59877;BME280;74472;51.140;17.184;2024-02-26T03:09:32;98986.59;;;3.92;83.78
59877;BME280;74472;51.140;17.184;2024-02-26T03:11:58;98980.53;;;3.92;83.63
59877;BME280;74472;51.140;17.184;2024-02-26T03:14:23;98974.38;;;3.93;83.53
59877;BME280;74472;51.140;17.184;2024-02-26T03:16:53;98978.84;;;3.91;83.59
59877;BME280;74472;51.140;17.184;2024-02-26T03:19:18;98984.81;;;3.93;83.44
59877;BME280;74472;51.140;17.184;2024-02-26T03:21:44;98981.44;;;3.91;83.50
59877;BME280;74472;51.140;17.184;2024-02-26T03:24:09;98977.06;;;3.91;83.67
59877;BME280;74472;51.140;17.184;2024-02-26T03:26:36;98979.59;;;3.93;83.66
59877;BME280;74472;51.140;17.184;2024-02-26T03:29:01;98980.41;;;3.93;83.96
59877;BME280;74472;51.140;17.184;2024-02-26T03:31:27;98976.97;;;3.93;83.47
59877;BME280;74472;51.140;17.184;2024-02-26T03:33:53;98977.81;;;3.93;83.65
59877;BME280;74472;51.140;17.184;2024-02-26T03:36:18;98979.66;;;3.91;83.69
59877;BME280;74472;51.140;17.184;2024-02-26T03:38:43;98982.28;;;3.91;83.76
59877;BME280;74472;51.140;17.184;2024-02-26T03:41:09;98983.22;;;3.90;83.69
59877;BME280;74472;51.140;17.184;2024-02-26T03:43:34;98970.28;;;3.89;83.80
59877;BME280;74472;51.140;17.184;2024-02-26T03:45:59;98971.13;;;3.89;83.59
59877;BME280;74472;51.140;17.184;2024-02-26T03:48:25;98972.91;;;3.89;83.67
59877;BME280;74472;51.140;17.184;2024-02-26T03:50:50;98976.34;;;3.89;83.60
59877;BME280;74472;51.140;17.184;2024-02-26T03:53:16;98967.78;;;3.87;83.59
59877;BME280;74472;51.140;17.184;2024-02-26T03:55:41;98974.69;;;3.88;83.76
59877;BME280;74472;51.140;17.184;2024-02-26T03:58:07;98962.53;;;3.87;83.63
59877;BME280;74472;51.140;17.184;2024-02-26T04:00:33;98973.00;;;3.87;83.66
59877;BME280;74472;51.140;17.184;2024-02-26T04:02:58;98967.78;;;3.87;83.66
59877;BME280;74472;51.140;17.184;2024-02-26T04:05:24;98965.56;;;3.81;83.67
59877;BME280;74472;51.140;17.184;2024-02-26T04:07:49;98974.34;;;3.80;83.66
59877;BME280;74472;51.140;17.184;2024-02-26T04:10:14;98964.00;;;3.79;83.63
59877;BME280;74472;51.140;17.184;2024-02-26T04:12:40;98969.31;;;3.77;83.72
59877;BME280;74472;51.140;17.184;2024-02-26T04:15:08;98973.78;;;3.75;83.99
59877;BME280;74472;51.140;17.184;2024-02-26T04:17:33;98966.81;;;3.75;84.14
59877;BME280;74472;51.140;17.184;2024-02-26T04:19:58;98970.34;;;3.74;83.99
59877;BME280;74472;51.140;17.184;2024-02-26T04:22:24;98978.94;;;3.76;83.76
59877;BME280;74472;51.140;17.184;2024-02-26T04:24:49;98970.06;;;3.79;83.78
59877;BME280;74472;51.140;17.184;2024-02-26T04:27:14;98967.53;;;3.78;83.79
59877;BME280;74472;51.140;17.184;2024-02-26T04:29:40;98969.44;;;3.75;83.77
59877;BME280;74472;51.140;17.184;2024-02-26T04:32:05;98973.72;;;3.76;83.82
59877;BME280;74472;51.140;17.184;2024-02-26T04:34:31;98972.03;;;3.75;83.78
59877;BME280;74472;51.140;17.184;2024-02-26T04:36:56;98978.19;;;3.74;83.89
59877;BME280;74472;51.140;17.184;2024-02-26T04:39:21;98971.94;;;3.77;83.77
59877;BME280;74472;51.140;17.184;2024-02-26T04:41:46;98979.66;;;3.79;83.75
59877;BME280;74472;51.140;17.184;2024-02-26T04:44:12;98979.66;;;3.79;83.85
59877;BME280;74472;51.140;17.184;2024-02-26T04:46:37;98981.63;;;3.75;84.05
59877;BME280;74472;51.140;17.184;2024-02-26T04:49:02;98979.00;;;3.75;83.88
59877;BME280;74472;51.140;17.184;2024-02-26T04:51:28;98975.78;;;3.71;84.09
59877;BME280;74472;51.140;17.184;2024-02-26T04:53:53;98986.94;;;3.73;84.22
59877;BME280;74472;51.140;17.184;2024-02-26T04:56:20;98988.53;;;3.76;84.09
59877;BME280;74472;51.140;17.184;2024-02-26T04:58:46;98987.59;;;3.77;84.04
59877;BME280;74472;51.140;17.184;2024-02-26T05:01:11;98991.97;;;3.76;84.03
59877;BME280;74472;51.140;17.184;2024-02-26T05:03:36;98983.19;;;3.78;84.12
59877;BME280;74472;51.140;17.184;2024-02-26T05:06:02;98995.09;;;3.82;84.03
59877;BME280;74472;51.140;17.184;2024-02-26T05:08:27;98984.66;;;3.82;84.03
59877;BME280;74472;51.140;17.184;2024-02-26T05:10:54;98987.28;;;3.82;83.97
59877;BME280;74472;51.140;17.184;2024-02-26T05:13:19;98983.81;;;3.81;84.13
59877;BME280;74472;51.140;17.184;2024-02-26T05:15:44;98987.94;;;3.85;84.24
59877;BME280;74472;51.140;17.184;2024-02-26T05:18:12;98979.25;;;3.85;83.77
59877;BME280;74472;51.140;17.184;2024-02-26T05:20:37;98985.59;;;3.81;83.99
59877;BME280;74472;51.140;17.184;2024-02-26T05:23:03;98988.41;;;3.78;84.25
59877;BME280;74472;51.140;17.184;2024-02-26T05:25:29;98987.78;;;3.74;84.21
59877;BME280;74472;51.140;17.184;2024-02-26T05:27:54;98995.81;;;3.71;84.31
59877;BME280;74472;51.140;17.184;2024-02-26T05:30:19;98993.41;;;3.68;83.97
59877;BME280;74472;51.140;17.184;2024-02-26T05:32:45;98984.84;;;3.66;84.23
59877;BME280;74472;51.140;17.184;2024-02-26T05:35:10;98989.25;;;3.65;84.66
59877;BME280;74472;51.140;17.184;2024-02-26T05:37:36;98989.25;;;3.65;84.75
59877;BME280;74472;51.140;17.184;2024-02-26T05:40:01;98995.19;;;3.67;84.74
59877;BME280;74472;51.140;17.184;2024-02-26T05:42:29;98995.28;;;3.66;84.79
59877;BME280;74472;51.140;17.184;2024-02-26T05:44:54;98991.84;;;3.65;84.67
59877;BME280;74472;51.140;17.184;2024-02-26T05:47:20;99000.50;;;3.66;84.61
59877;BME280;74472;51.140;17.184;2024-02-26T05:49:45;99003.00;;;3.67;84.73
59877;BME280;74472;51.140;17.184;2024-02-26T05:52:10;99001.13;;;3.69;84.52
59877;BME280;74472;51.140;17.184;2024-02-26T05:54:36;99006.16;;;3.72;84.44
59877;BME280;74472;51.140;17.184;2024-02-26T05:57:01;99007.81;;;3.73;84.70
59877;BME280;74472;51.140;17.184;2024-02-26T05:59:27;99005.34;;;3.72;84.78
59877;BME280;74472;51.140;17.184;2024-02-26T06:01:52;99006.25;;;3.71;84.51
59877;BME280;74472;51.140;17.184;2024-02-26T06:04:17;99009.88;;;3.68;84.54
59877;BME280;74472;51.140;17.184;2024-02-26T06:06:46;99007.28;;;3.68;84.72
59877;BME280;74472;51.140;17.184;2024-02-26T06:09:11;99006.34;;;3.69;84.98
59877;BME280;74472;51.140;17.184;2024-02-26T06:11:37;99012.41;;;3.70;84.93
59877;BME280;74472;51.140;17.184;2024-02-26T06:14:02;99009.81;;;3.70;84.87
59877;BME280;74472;51.140;17.184;2024-02-26T06:16:27;99019.84;;;3.76;84.83
59877;BME280;74472;51.140;17.184;2024-02-26T06:18:53;99017.22;;;3.76;84.96
59877;BME280;74472;51.140;17.184;2024-02-26T06:21:18;99020.75;;;3.75;85.10
59877;BME280;74472;51.140;17.184;2024-02-26T06:23:43;99016.41;;;3.75;85.18
59877;BME280;74472;51.140;17.184;2024-02-26T06:26:09;99013.78;;;3.75;85.33
59877;BME280;74472;51.140;17.184;2024-02-26T06:28:35;99021.41;;;3.79;85.17
59877;BME280;74472;51.140;17.184;2024-02-26T06:31:01;99016.09;;;3.80;85.36
59877;BME280;74472;51.140;17.184;2024-02-26T06:33:27;99015.06;;;3.83;85.31
59877;BME280;74472;51.140;17.184;2024-02-26T06:35:52;99020.16;;;3.84;85.46
59877;BME280;74472;51.140;17.184;2024-02-26T06:38:17;99017.28;;;3.89;85.59
59877;BME280;74472;51.140;17.184;2024-02-26T06:40:44;99028.34;;;3.92;85.71
59877;BME280;74472;51.140;17.184;2024-02-26T06:43:09;99024.69;;;3.95;85.62
59877;BME280;74472;51.140;17.184;2024-02-26T06:45:35;99014.88;;;3.98;85.79
59877;BME280;74472;51.140;17.184;2024-02-26T06:48:00;99013.75;;;4.03;85.87
59877;BME280;74472;51.140;17.184;2024-02-26T06:50:26;99012.59;;;4.07;85.92
59877;BME280;74472;51.140;17.184;2024-02-26T06:52:51;99011.44;;;4.11;85.93
59877;BME280;74472;51.140;17.184;2024-02-26T06:55:16;99021.59;;;4.15;86.35
59877;BME280;74472;51.140;17.184;2024-02-26T06:57:42;99018.56;;;4.21;86.25
59877;BME280;74472;51.140;17.184;2024-02-26T07:00:08;99023.34;;;4.28;86.17
59877;BME280;74472;51.140;17.184;2024-02-26T07:02:33;99021.28;;;4.33;86.31
59877;BME280;74472;51.140;17.184;2024-02-26T07:04:59;99026.94;;;4.39;86.27
59877;BME280;74472;51.140;17.184;2024-02-26T07:07:24;99028.09;;;4.48;86.29
59877;BME280;74472;51.140;17.184;2024-02-26T07:09:50;99034.78;;;4.52;86.20
59877;BME280;74472;51.140;17.184;2024-02-26T07:12:15;99029.22;;;4.57;86.59
59877;BME280;74472;51.140;17.184;2024-02-26T07:14:41;99037.69;;;4.60;86.47
59877;BME280;74472;51.140;17.184;2024-02-26T07:17:07;99037.28;;;4.66;87.00
59877;BME280;74472;51.140;17.184;2024-02-26T07:19:34;99039.38;;;4.74;87.70
59877;BME280;74472;51.140;17.184;2024-02-26T07:21:59;99042.41;;;4.81;88.15
59877;BME280;74472;51.140;17.184;2024-02-26T07:24:26;99031.50;;;4.87;88.31
59877;BME280;74472;51.140;17.184;2024-02-26T07:26:52;99037.13;;;4.93;88.30
59877;BME280;74472;51.140;17.184;2024-02-26T07:29:19;99040.28;;;4.99;88.92
59877;BME280;74472;51.140;17.184;2024-02-26T07:31:45;99031.06;;;5.06;89.01
59877;BME280;74472;51.140;17.184;2024-02-26T07:34:10;99033.03;;;5.15;89.02
59877;BME280;74472;51.140;17.184;2024-02-26T07:36:35;99031.75;;;5.21;89.14
59877;BME280;74472;51.140;17.184;2024-02-26T07:39:01;99032.25;;;5.26;89.23
59877;BME280;74472;51.140;17.184;2024-02-26T07:41:26;99040.41;;;5.34;89.62
59877;BME280;74472;51.140;17.184;2024-02-26T07:43:52;99042.69;;;5.38;89.66
59877;BME280;74472;51.140;17.184;2024-02-26T07:46:18;99031.25;;;5.39;90.22
59877;BME280;74472;51.140;17.184;2024-02-26T07:48:43;99044.97;;;5.43;90.77
59877;BME280;74472;51.140;17.184;2024-02-26T07:51:08;99048.09;;;5.48;91.31
59877;BME280;74472;51.140;17.184;2024-02-26T07:53:33;99029.69;;;5.50;91.65
59877;BME280;74472;51.140;17.184;2024-02-26T07:55:59;99034.22;;;5.59;91.45
59877;BME280;74472;51.140;17.184;2024-02-26T07:58:24;99033.56;;;5.68;91.99
59877;BME280;74472;51.140;17.184;2024-02-26T08:00:50;99036.25;;;5.79;92.31
59877;BME280;74472;51.140;17.184;2024-02-26T08:03:15;99032.00;;;5.90;92.18
59877;BME280;74472;51.140;17.184;2024-02-26T08:05:41;99034.91;;;5.98;92.27
59877;BME280;74472;51.140;17.184;2024-02-26T08:08:08;99030.88;;;6.05;92.39
59877;BME280;74472;51.140;17.184;2024-02-26T08:10:33;99029.97;;;6.17;92.62
59877;BME280;74472;51.140;17.184;2024-02-26T08:12:59;99036.19;;;6.27;92.76
59877;BME280;74472;51.140;17.184;2024-02-26T08:15:31;99037.88;;;6.40;92.50
59877;BME280;74472;51.140;17.184;2024-02-26T08:17:56;99044.94;;;6.50;92.44
59877;BME280;74472;51.140;17.184;2024-02-26T08:20:22;99041.38;;;6.63;92.41
59877;BME280;74472;51.140;17.184;2024-02-26T08:22:47;99042.22;;;6.74;92.49
59877;BME280;74472;51.140;17.184;2024-02-26T08:25:12;99036.16;;;6.85;92.33
59877;BME280;74472;51.140;17.184;2024-02-26T08:27:38;99040.31;;;6.99;92.58
59877;BME280;74472;51.140;17.184;2024-02-26T08:30:04;99041.13;;;7.11;92.60
59877;BME280;74472;51.140;17.184;2024-02-26T08:32:29;99040.91;;;7.25;92.14
59877;BME280;74472;51.140;17.184;2024-02-26T08:34:55;99030.38;;;7.36;92.13
59877;BME280;74472;51.140;17.184;2024-02-26T08:37:20;99041.31;;;7.52;92.26
59877;BME280;74472;51.140;17.184;2024-02-26T08:39:45;99038.28;;;7.68;92.01
59877;BME280;74472;51.140;17.184;2024-02-26T08:42:11;99035.34;;;7.83;91.81
59877;BME280;74472;51.140;17.184;2024-02-26T08:44:36;99029.69;;;7.98;91.07
59877;BME280;74472;51.140;17.184;2024-02-26T08:47:01;99018.03;;;8.12;90.81
59877;BME280;74472;51.140;17.184;2024-02-26T08:49:27;99026.19;;;8.30;90.09
59877;BME280;74472;51.140;17.184;2024-02-26T08:51:53;99028.50;;;8.44;90.25
59877;BME280;74472;51.140;17.184;2024-02-26T08:54:18;99027.50;;;8.57;89.61
59877;BME280;74472;51.140;17.184;2024-02-26T08:56:43;99020.94;;;8.72;89.05
59877;BME280;74472;51.140;17.184;2024-02-26T08:59:09;99025.69;;;8.88;89.27
59877;BME280;74472;51.140;17.184;2024-02-26T09:01:34;99031.69;;;9.00;88.79
59877;BME280;74472;51.140;17.184;2024-02-26T09:03:59;99016.78;;;9.10;88.01
59877;BME280;74472;51.140;17.184;2024-02-26T09:06:25;99016.38;;;9.24;88.41
59877;BME280;74472;51.140;17.184;2024-02-26T09:08:50;99021.56;;;9.35;87.77
59877;BME280;74472;51.140;17.184;2024-02-26T09:11:18;99019.78;;;9.46;87.69
59877;BME280;74472;51.140;17.184;2024-02-26T09:13:44;99024.38;;;9.63;87.32
59877;BME280;74472;51.140;17.184;2024-02-26T09:16:09;99024.94;;;9.76;86.97
59877;BME280;74472;51.140;17.184;2024-02-26T09:18:34;99025.38;;;9.91;86.66
59877;BME280;74472;51.140;17.184;2024-02-26T09:20:59;99020.38;;;10.07;86.61
59877;BME280;74472;51.140;17.184;2024-02-26T09:23:29;99021.03;;;10.19;85.54
59877;BME280;74472;51.140;17.184;2024-02-26T09:25:55;99018.84;;;10.34;85.46
59877;BME280;74472;51.140;17.184;2024-02-26T09:28:20;99019.78;;;10.43;84.77
59877;BME280;74472;51.140;17.184;2024-02-26T09:30:45;99015.34;;;10.53;84.10
59877;BME280;74472;51.140;17.184;2024-02-26T09:33:11;99018.63;;;10.65;85.60
59877;BME280;74472;51.140;17.184;2024-02-26T09:35:36;99010.22;;;10.79;85.03
59877;BME280;74472;51.140;17.184;2024-02-26T09:38:02;99018.53;;;10.94;83.82
59877;BME280;74472;51.140;17.184;2024-02-26T09:40:27;99013.31;;;11.02;83.10
59877;BME280;74472;51.140;17.184;2024-02-26T09:42:59;99020.91;;;11.15;82.95
59877;BME280;74472;51.140;17.184;2024-02-26T09:45:28;99011.13;;;11.25;82.84
59877;BME280;74472;51.140;17.184;2024-02-26T09:47:55;99016.81;;;11.30;81.74
59877;BME280;74472;51.140;17.184;2024-02-26T09:50:22;99018.03;;;11.36;80.91
59877;BME280;74472;51.140;17.184;2024-02-26T09:52:48;99018.56;;;11.39;80.41
59877;BME280;74472;51.140;17.184;2024-02-26T09:55:14;99023.25;;;11.45;81.27
59877;BME280;74472;51.140;17.184;2024-02-26T09:57:44;99021.53;;;11.54;80.62
59877;BME280;74472;51.140;17.184;2024-02-26T10:00:15;99021.22;;;11.57;80.02
59877;BME280;74472;51.140;17.184;2024-02-26T10:02:44;99018.53;;;11.67;80.28
59877;BME280;74472;51.140;17.184;2024-02-26T10:05:12;99020.25;;;11.76;79.63
59877;BME280;74472;51.140;17.184;2024-02-26T10:07:40;99021.63;;;11.80;79.26
59877;BME280;74472;51.140;17.184;2024-02-26T10:10:06;99026.34;;;11.86;79.06
59877;BME280;74472;51.140;17.184;2024-02-26T10:12:31;99019.47;;;11.93;78.85
59877;BME280;74472;51.140;17.184;2024-02-26T10:14:57;99019.69;;;12.00;78.16
59877;BME280;74472;51.140;17.184;2024-02-26T10:17:23;99028.34;;;12.10;77.65
59877;BME280;74472;51.140;17.184;2024-02-26T10:19:48;99025.09;;;12.16;77.79
59877;BME280;74472;51.140;17.184;2024-02-26T10:22:13;99026.31;;;12.22;77.92
59877;BME280;74472;51.140;17.184;2024-02-26T10:24:39;99025.22;;;12.33;77.40
59877;BME280;74472;51.140;17.184;2024-02-26T10:27:04;99028.59;;;12.43;77.49
59877;BME280;74472;51.140;17.184;2024-02-26T10:29:30;99034.94;;;12.50;76.64
59877;BME280;74472;51.140;17.184;2024-02-26T10:31:56;99033.66;;;12.54;76.00
59877;BME280;74472;51.140;17.184;2024-02-26T10:34:21;99032.84;;;12.54;75.35
59877;BME280;74472;51.140;17.184;2024-02-26T10:36:47;99031.38;;;12.59;75.52
59877;BME280;74472;51.140;17.184;2024-02-26T10:39:12;99029.53;;;12.60;75.91
59877;BME280;74472;51.140;17.184;2024-02-26T10:41:42;99034.22;;;12.66;75.35
59877;BME280;74472;51.140;17.184;2024-02-26T10:44:12;99034.91;;;12.68;74.48
59877;BME280;74472;51.140;17.184;2024-02-26T10:46:38;99033.25;;;12.67;74.90
59877;BME280;74472;51.140;17.184;2024-02-26T10:49:05;99027.47;;;12.72;74.63
59877;BME280;74472;51.140;17.184;2024-02-26T10:51:34;99033.66;;;12.80;75.45
59877;BME280;74472;51.140;17.184;2024-02-26T10:54:04;99037.53;;;12.94;74.76
59877;BME280;74472;51.140;17.184;2024-02-26T10:56:34;99025.13;;;12.95;73.53
59877;BME280;74472;51.140;17.184;2024-02-26T10:59:00;99027.47;;;12.98;73.35
59877;BME280;74472;51.140;17.184;2024-02-26T11:01:27;99021.53;;;13.04;74.29
59877;BME280;74472;51.140;17.184;2024-02-26T11:03:55;99012.94;;;13.10;73.88
59877;BME280;74472;51.140;17.184;2024-02-26T11:06:21;99023.75;;;13.17;73.36
59877;BME280;74472;51.140;17.184;2024-02-26T11:08:48;99015.31;;;13.21;73.52
59877;BME280;74472;51.140;17.184;2024-02-26T11:11:15;99014.53;;;13.29;72.91
59877;BME280;74472;51.140;17.184;2024-02-26T11:13:42;99010.59;;;13.33;72.50
59877;BME280;74472;51.140;17.184;2024-02-26T11:16:11;98998.63;;;13.29;72.19
59877;BME280;74472;51.140;17.184;2024-02-26T11:18:37;99010.59;;;13.33;72.00
59877;BME280;74472;51.140;17.184;2024-02-26T11:21:05;99008.59;;;13.35;72.79
59877;BME280;74472;51.140;17.184;2024-02-26T11:23:33;99003.97;;;13.45;72.69
59877;BME280;74472;51.140;17.184;2024-02-26T11:26:02;99001.69;;;13.50;72.02
59877;BME280;74472;51.140;17.184;2024-02-26T11:28:30;98997.06;;;13.52;71.38
59877;BME280;74472;51.140;17.184;2024-02-26T11:30:59;98997.06;;;13.52;71.56
59877;BME280;74472;51.140;17.184;2024-02-26T11:33:26;98992.25;;;13.56;71.11
59877;BME280;74472;51.140;17.184;2024-02-26T11:35:53;98988.44;;;13.58;71.52
59877;BME280;74472;51.140;17.184;2024-02-26T11:38:20;98981.66;;;13.64;70.98
59877;BME280;74472;51.140;17.184;2024-02-26T11:40:47;98982.47;;;13.65;71.33
59877;BME280;74472;51.140;17.184;2024-02-26T11:43:13;98988.47;;;13.67;70.33
59877;BME280;74472;51.140;17.184;2024-02-26T11:48:04;98974.53;;;13.65;69.80
59877;BME280;74472;51.140;17.184;2024-02-26T11:50:34;98981.97;;;13.61;69.73
59877;BME280;74472;51.140;17.184;2024-02-26T11:55:44;98986.28;;;13.62;69.61
59877;BME280;74472;51.140;17.184;2024-02-26T11:58:10;98986.13;;;13.64;69.68
59877;BME280;74472;51.140;17.184;2024-02-26T12:00:35;98978.34;;;13.62;69.02
59877;BME280;74472;51.140;17.184;2024-02-26T12:03:01;98979.00;;;13.56;68.92
59877;BME280;74472;51.140;17.184;2024-02-26T12:05:32;98978.50;;;13.52;69.53
59877;BME280;74472;51.140;17.184;2024-02-26T12:08:05;98987.44;;;13.51;69.14
59877;BME280;74472;51.140;17.184;2024-02-26T12:13:11;98976.50;;;13.46;68.64
59877;BME280;74472;51.140;17.184;2024-02-26T12:15:39;98977.00;;;13.50;68.79
59877;BME280;74472;51.140;17.184;2024-02-26T12:18:08;98991.91;;;13.51;68.65
59877;BME280;74472;51.140;17.184;2024-02-26T12:20:36;98978.84;;;13.49;68.63
59877;BME280;74472;51.140;17.184;2024-02-26T12:23:05;98979.84;;;13.56;68.60
59877;BME280;74472;51.140;17.184;2024-02-26T12:25:31;98970.72;;;13.59;68.27
59877;BME280;74472;51.140;17.184;2024-02-26T12:27:57;98983.63;;;13.62;68.37
59877;BME280;74472;51.140;17.184;2024-02-26T12:30:23;98973.88;;;13.63;68.29
59877;BME280;74472;51.140;17.184;2024-02-26T12:32:50;98981.66;;;13.64;68.00
59877;BME280;74472;51.140;17.184;2024-02-26T12:35:16;98984.16;;;13.66;67.96
59877;BME280;74472;51.140;17.184;2024-02-26T12:37:42;98976.03;;;13.67;68.39
59877;BME280;74472;51.140;17.184;2024-02-26T12:40:08;98971.56;;;13.68;67.61
59877;BME280;74472;51.140;17.184;2024-02-26T12:42:35;98988.78;;;13.72;67.71
59877;BME280;74472;51.140;17.184;2024-02-26T12:45:09;98985.16;;;13.73;67.21
59877;BME280;74472;51.140;17.184;2024-02-26T12:47:36;98982.50;;;13.73;67.64
59877;BME280;74472;51.140;17.184;2024-02-26T12:50:02;98977.69;;;13.68;67.29
59877;BME280;74472;51.140;17.184;2024-02-26T12:52:30;98982.66;;;13.71;66.92
59877;BME280;74472;51.140;17.184;2024-02-26T12:54:56;98974.88;;;13.70;67.00
59877;BME280;74472;51.140;17.184;2024-02-26T12:57:22;98984.34;;;13.72;66.55
59877;BME280;74472;51.140;17.184;2024-02-26T12:59:47;98990.28;;;13.74;66.95